sensor_id;sensor_type;location;lat;lon;timestamp;P1;durP1;ratioP1;P2;durP2;ratioP2
79677;SDS011;69145;45.544;10.214;2023-07-13T00:01:42;5.28;;;1.60;;
79677;SDS011;69145;45.544;10.214;2023-07-13T00:04:08;2.88;;;1.02;;
79677;SDS011;69145;45.544;10.214;2023-07-13T00:06:33;2.42;;;0.90;;
79677;SDS011;69145;45.544;10.214;2023-07-13T00:09:00;2.97;;;1.17;;
79677;SDS011;69145;45.544;10.214;2023-07-13T00:11:26;3.47;;;1.38;;
79677;SDS011;69145;45.544;10.214;2023-07-13T00:13:51;3.25;;;1.30;;
79677;SDS011;69145;45.544;10.214;2023-07-13T00:16:17;4.70;;;1.57;;
79677;SDS011;69145;45.544;10.214;2023-07-13T00:18:43;3.60;;;1.38;;
79677;SDS011;69145;45.544;10.214;2023-07-13T00:21:09;3.92;;;0.90;;
79677;SDS011;69145;45.544;10.214;2023-07-13T00:23:36;2.63;;;1.00;;
79677;SDS011;69145;45.544;10.214;2023-07-13T00:26:03;3.42;;;1.45;;
79677;SDS011;69145;45.544;10.214;2023-07-13T00:28:29;3.53;;;1.52;;
79677;SDS011;69145;45.544;10.214;2023-07-13T00:30:55;2.75;;;1.38;;
79677;SDS011;69145;45.544;10.214;2023-07-13T00:33:20;3.53;;;1.50;;
79677;SDS011;69145;45.544;10.214;2023-07-13T00:35:47;3.67;;;1.50;;
79677;SDS011;69145;45.544;10.214;2023-07-13T00:38:13;4.50;;;1.45;;
79677;SDS011;69145;45.544;10.214;2023-07-13T00:40:38;5.00;;;1.77;;
79677;SDS011;69145;45.544;10.214;2023-07-13T00:43:08;3.93;;;2.07;;
79677;SDS011;69145;45.544;10.214;2023-07-13T00:48:09;6.03;;;2.30;;
79677;SDS011;69145;45.544;10.214;2023-07-13T00:50:36;5.50;;;2.40;;
79677;SDS011;69145;45.544;10.214;2023-07-13T00:53:02;4.75;;;2.30;;
79677;SDS011;69145;45.544;10.214;2023-07-13T00:55:28;4.70;;;2.13;;
79677;SDS011;69145;45.544;10.214;2023-07-13T00:57:54;4.93;;;2.20;;
79677;SDS011;69145;45.544;10.214;2023-07-13T01:00:20;7.13;;;3.13;;
79677;SDS011;69145;45.544;10.214;2023-07-13T01:02:47;6.07;;;2.85;;
79677;SDS011;69145;45.544;10.214;2023-07-13T01:05:16;6.00;;;3.03;;
79677;SDS011;69145;45.544;10.214;2023-07-13T01:07:44;7.40;;;3.65;;
79677;SDS011;69145;45.544;10.214;2023-07-13T01:10:12;6.50;;;4.00;;
79677;SDS011;69145;45.544;10.214;2023-07-13T01:12:38;5.90;;;3.30;;
79677;SDS011;69145;45.544;10.214;2023-07-13T01:15:04;6.73;;;3.57;;
79677;SDS011;69145;45.544;10.214;2023-07-13T01:17:30;8.98;;;3.97;;
79677;SDS011;69145;45.544;10.214;2023-07-13T01:19:58;7.20;;;3.35;;
79677;SDS011;69145;45.544;10.214;2023-07-13T01:22:23;6.32;;;3.05;;
79677;SDS011;69145;45.544;10.214;2023-07-13T01:24:51;6.60;;;2.55;;
79677;SDS011;69145;45.544;10.214;2023-07-13T01:27:21;4.80;;;2.65;;
79677;SDS011;69145;45.544;10.214;2023-07-13T01:29:51;5.50;;;2.65;;
79677;SDS011;69145;45.544;10.214;2023-07-13T01:32:20;4.75;;;2.50;;
79677;SDS011;69145;45.544;10.214;2023-07-13T01:34:49;6.47;;;2.95;;
79677;SDS011;69145;45.544;10.214;2023-07-13T01:37:15;6.00;;;2.75;;
79677;SDS011;69145;45.544;10.214;2023-07-13T01:39:41;7.07;;;3.03;;
79677;SDS011;69145;45.544;10.214;2023-07-13T01:42:06;6.43;;;3.20;;
79677;SDS011;69145;45.544;10.214;2023-07-13T01:44:32;6.22;;;2.72;;
79677;SDS011;69145;45.544;10.214;2023-07-13T01:46:57;6.15;;;3.05;;
79677;SDS011;69145;45.544;10.214;2023-07-13T01:49:23;5.75;;;2.75;;
79677;SDS011;69145;45.544;10.214;2023-07-13T01:51:48;5.22;;;2.85;;
79677;SDS011;69145;45.544;10.214;2023-07-13T01:54:13;5.93;;;3.07;;
79677;SDS011;69145;45.544;10.214;2023-07-13T01:56:39;4.37;;;2.73;;
79677;SDS011;69145;45.544;10.214;2023-07-13T01:59:04;5.93;;;2.70;;
79677;SDS011;69145;45.544;10.214;2023-07-13T02:01:30;6.00;;;2.65;;
79677;SDS011;69145;45.544;10.214;2023-07-13T02:03:55;7.37;;;3.00;;
79677;SDS011;69145;45.544;10.214;2023-07-13T02:06:21;5.20;;;2.90;;
79677;SDS011;69145;45.544;10.214;2023-07-13T02:08:46;5.40;;;2.85;;
79677;SDS011;69145;45.544;10.214;2023-07-13T02:11:12;6.33;;;2.80;;
79677;SDS011;69145;45.544;10.214;2023-07-13T02:13:37;4.85;;;2.80;;
79677;SDS011;69145;45.544;10.214;2023-07-13T02:16:03;6.25;;;2.88;;
79677;SDS011;69145;45.544;10.214;2023-07-13T02:18:28;5.38;;;2.72;;
79677;SDS011;69145;45.544;10.214;2023-07-13T02:20:53;7.15;;;3.42;;
79677;SDS011;69145;45.544;10.214;2023-07-13T02:23:19;5.63;;;3.42;;
79677;SDS011;69145;45.544;10.214;2023-07-13T02:25:45;5.43;;;3.42;;
79677;SDS011;69145;45.544;10.214;2023-07-13T02:28:10;6.63;;;3.67;;
79677;SDS011;69145;45.544;10.214;2023-07-13T02:30:36;7.07;;;3.03;;
79677;SDS011;69145;45.544;10.214;2023-07-13T02:33:01;7.18;;;3.60;;
79677;SDS011;69145;45.544;10.214;2023-07-13T02:35:27;6.57;;;3.50;;
79677;SDS011;69145;45.544;10.214;2023-07-13T02:37:52;5.82;;;3.13;;
79677;SDS011;69145;45.544;10.214;2023-07-13T02:40:18;5.80;;;3.28;;
79677;SDS011;69145;45.544;10.214;2023-07-13T02:42:43;7.60;;;3.63;;
79677;SDS011;69145;45.544;10.214;2023-07-13T02:45:09;6.23;;;3.50;;
79677;SDS011;69145;45.544;10.214;2023-07-13T02:47:35;6.40;;;3.35;;
79677;SDS011;69145;45.544;10.214;2023-07-13T02:50:01;7.03;;;3.63;;
79677;SDS011;69145;45.544;10.214;2023-07-13T02:52:27;7.72;;;3.85;;
79677;SDS011;69145;45.544;10.214;2023-07-13T02:54:52;5.80;;;3.78;;
79677;SDS011;69145;45.544;10.214;2023-07-13T02:57:17;6.37;;;3.17;;
79677;SDS011;69145;45.544;10.214;2023-07-13T02:59:43;7.07;;;3.28;;
79677;SDS011;69145;45.544;10.214;2023-07-13T03:02:08;6.27;;;3.50;;
79677;SDS011;69145;45.544;10.214;2023-07-13T03:04:35;7.45;;;3.90;;
79677;SDS011;69145;45.544;10.214;2023-07-13T03:07:01;6.95;;;3.47;;
79677;SDS011;69145;45.544;10.214;2023-07-13T03:09:27;6.75;;;3.58;;
79677;SDS011;69145;45.544;10.214;2023-07-13T03:11:53;5.95;;;4.03;;
79677;SDS011;69145;45.544;10.214;2023-07-13T03:14:20;6.97;;;4.18;;
79677;SDS011;69145;45.544;10.214;2023-07-13T03:16:46;6.20;;;4.00;;
79677;SDS011;69145;45.544;10.214;2023-07-13T03:19:12;6.03;;;3.83;;
79677;SDS011;69145;45.544;10.214;2023-07-13T03:21:37;6.63;;;3.78;;
79677;SDS011;69145;45.544;10.214;2023-07-13T03:24:02;7.83;;;3.13;;
79677;SDS011;69145;45.544;10.214;2023-07-13T03:26:28;5.95;;;2.97;;
79677;SDS011;69145;45.544;10.214;2023-07-13T03:28:53;6.53;;;2.50;;
79677;SDS011;69145;45.544;10.214;2023-07-13T03:31:20;5.95;;;3.00;;
79677;SDS011;69145;45.544;10.214;2023-07-13T03:33:47;4.70;;;2.20;;
79677;SDS011;69145;45.544;10.214;2023-07-13T03:36:14;4.97;;;2.10;;
79677;SDS011;69145;45.544;10.214;2023-07-13T03:38:45;4.65;;;2.40;;
79677;SDS011;69145;45.544;10.214;2023-07-13T03:41:12;7.13;;;2.35;;
79677;SDS011;69145;45.544;10.214;2023-07-13T03:43:37;5.65;;;2.38;;
79677;SDS011;69145;45.544;10.214;2023-07-13T03:46:02;4.85;;;2.45;;
79677;SDS011;69145;45.544;10.214;2023-07-13T03:48:28;3.92;;;1.95;;
79677;SDS011;69145;45.544;10.214;2023-07-13T03:50:53;3.67;;;2.03;;
79677;SDS011;69145;45.544;10.214;2023-07-13T03:53:18;4.40;;;3.07;;
79677;SDS011;69145;45.544;10.214;2023-07-13T03:55:44;5.50;;;2.15;;
79677;SDS011;69145;45.544;10.214;2023-07-13T04:00:59;6.10;;;2.30;;
79677;SDS011;69145;45.544;10.214;2023-07-13T04:03:25;5.22;;;2.67;;
79677;SDS011;69145;45.544;10.214;2023-07-13T04:05:52;6.25;;;2.67;;
79677;SDS011;69145;45.544;10.214;2023-07-13T04:08:18;3.78;;;2.22;;
79677;SDS011;69145;45.544;10.214;2023-07-13T04:10:44;7.05;;;2.35;;
79677;SDS011;69145;45.544;10.214;2023-07-13T04:13:09;4.88;;;2.20;;
79677;SDS011;69145;45.544;10.214;2023-07-13T04:15:34;4.53;;;2.33;;
79677;SDS011;69145;45.544;10.214;2023-07-13T04:18:00;4.43;;;1.90;;
79677;SDS011;69145;45.544;10.214;2023-07-13T04:20:25;6.73;;;2.43;;
79677;SDS011;69145;45.544;10.214;2023-07-13T04:22:51;5.25;;;2.40;;
79677;SDS011;69145;45.544;10.214;2023-07-13T04:25:18;5.25;;;1.95;;
79677;SDS011;69145;45.544;10.214;2023-07-13T04:27:44;6.28;;;2.28;;
79677;SDS011;69145;45.544;10.214;2023-07-13T04:30:09;3.65;;;2.22;;
79677;SDS011;69145;45.544;10.214;2023-07-13T04:32:35;5.35;;;2.53;;
79677;SDS011;69145;45.544;10.214;2023-07-13T04:35:00;4.50;;;2.22;;
79677;SDS011;69145;45.544;10.214;2023-07-13T04:37:26;4.75;;;2.72;;
79677;SDS011;69145;45.544;10.214;2023-07-13T04:39:51;5.35;;;2.15;;
79677;SDS011;69145;45.544;10.214;2023-07-13T04:42:17;6.43;;;2.97;;
79677;SDS011;69145;45.544;10.214;2023-07-13T04:44:49;7.80;;;3.00;;
79677;SDS011;69145;45.544;10.214;2023-07-13T04:47:16;4.18;;;2.50;;
79677;SDS011;69145;45.544;10.214;2023-07-13T04:49:41;5.72;;;2.78;;
79677;SDS011;69145;45.544;10.214;2023-07-13T04:52:07;5.00;;;2.38;;
79677;SDS011;69145;45.544;10.214;2023-07-13T04:54:33;5.53;;;2.40;;
79677;SDS011;69145;45.544;10.214;2023-07-13T04:56:59;6.10;;;2.67;;
79677;SDS011;69145;45.544;10.214;2023-07-13T04:59:24;4.30;;;2.33;;
79677;SDS011;69145;45.544;10.214;2023-07-13T05:01:50;5.63;;;2.20;;
79677;SDS011;69145;45.544;10.214;2023-07-13T05:04:15;3.83;;;2.15;;
79677;SDS011;69145;45.544;10.214;2023-07-13T05:06:41;4.33;;;2.00;;
79677;SDS011;69145;45.544;10.214;2023-07-13T05:09:06;5.72;;;2.00;;
79677;SDS011;69145;45.544;10.214;2023-07-13T05:11:32;3.75;;;2.00;;
79677;SDS011;69145;45.544;10.214;2023-07-13T05:13:58;4.22;;;1.88;;
79677;SDS011;69145;45.544;10.214;2023-07-13T05:16:23;4.75;;;2.13;;
79677;SDS011;69145;45.544;10.214;2023-07-13T05:18:49;5.05;;;2.25;;
79677;SDS011;69145;45.544;10.214;2023-07-13T05:21:14;3.78;;;1.90;;
79677;SDS011;69145;45.544;10.214;2023-07-13T05:23:40;4.75;;;1.88;;
79677;SDS011;69145;45.544;10.214;2023-07-13T05:26:08;5.82;;;2.00;;
79677;SDS011;69145;45.544;10.214;2023-07-13T05:28:34;3.30;;;2.08;;
79677;SDS011;69145;45.544;10.214;2023-07-13T05:31:00;4.57;;;1.88;;
79677;SDS011;69145;45.544;10.214;2023-07-13T05:33:26;5.32;;;2.00;;
79677;SDS011;69145;45.544;10.214;2023-07-13T05:35:52;3.95;;;1.98;;
79677;SDS011;69145;45.544;10.214;2023-07-13T05:38:18;3.75;;;1.92;;
79677;SDS011;69145;45.544;10.214;2023-07-13T05:40:43;4.50;;;2.17;;
79677;SDS011;69145;45.544;10.214;2023-07-13T05:43:09;4.25;;;1.85;;
79677;SDS011;69145;45.544;10.214;2023-07-13T05:45:38;4.40;;;1.98;;
79677;SDS011;69145;45.544;10.214;2023-07-13T05:48:04;4.75;;;1.85;;
79677;SDS011;69145;45.544;10.214;2023-07-13T05:50:30;4.00;;;1.58;;
79677;SDS011;69145;45.544;10.214;2023-07-13T05:52:55;4.27;;;1.87;;
79677;SDS011;69145;45.544;10.214;2023-07-13T05:55:21;3.40;;;2.03;;
79677;SDS011;69145;45.544;10.214;2023-07-13T05:57:47;5.22;;;2.45;;
79677;SDS011;69145;45.544;10.214;2023-07-13T06:00:13;3.33;;;1.70;;
79677;SDS011;69145;45.544;10.214;2023-07-13T06:02:38;3.63;;;1.83;;
79677;SDS011;69145;45.544;10.214;2023-07-13T06:05:04;4.30;;;1.87;;
79677;SDS011;69145;45.544;10.214;2023-07-13T06:07:29;6.00;;;1.95;;
79677;SDS011;69145;45.544;10.214;2023-07-13T06:09:55;5.47;;;2.00;;
79677;SDS011;69145;45.544;10.214;2023-07-13T06:12:20;6.00;;;2.05;;
79677;SDS011;69145;45.544;10.214;2023-07-13T06:14:45;6.18;;;2.03;;
79677;SDS011;69145;45.544;10.214;2023-07-13T06:17:14;5.07;;;1.88;;
79677;SDS011;69145;45.544;10.214;2023-07-13T06:19:39;4.40;;;1.73;;
79677;SDS011;69145;45.544;10.214;2023-07-13T06:22:05;4.82;;;2.38;;
79677;SDS011;69145;45.544;10.214;2023-07-13T06:24:30;12.73;;;3.15;;
79677;SDS011;69145;45.544;10.214;2023-07-13T06:26:56;10.20;;;3.03;;
79677;SDS011;69145;45.544;10.214;2023-07-13T06:29:21;8.82;;;2.63;;
79677;SDS011;69145;45.544;10.214;2023-07-13T06:31:46;8.47;;;2.97;;
79677;SDS011;69145;45.544;10.214;2023-07-13T06:34:12;10.17;;;2.43;;
79677;SDS011;69145;45.544;10.214;2023-07-13T06:36:37;7.90;;;2.53;;
79677;SDS011;69145;45.544;10.214;2023-07-13T06:39:03;6.72;;;2.38;;
79677;SDS011;69145;45.544;10.214;2023-07-13T06:41:29;8.60;;;2.97;;
79677;SDS011;69145;45.544;10.214;2023-07-13T06:43:55;8.93;;;3.20;;
79677;SDS011;69145;45.544;10.214;2023-07-13T06:46:21;8.80;;;2.55;;
79677;SDS011;69145;45.544;10.214;2023-07-13T06:48:47;7.95;;;2.50;;
79677;SDS011;69145;45.544;10.214;2023-07-13T06:51:13;5.60;;;2.73;;
79677;SDS011;69145;45.544;10.214;2023-07-13T06:53:39;4.78;;;2.60;;
79677;SDS011;69145;45.544;10.214;2023-07-13T06:56:04;8.45;;;2.50;;
79677;SDS011;69145;45.544;10.214;2023-07-13T06:58:30;12.07;;;3.40;;
79677;SDS011;69145;45.544;10.214;2023-07-13T07:00:55;10.63;;;2.80;;
79677;SDS011;69145;45.544;10.214;2023-07-13T07:03:20;17.63;;;3.23;;
79677;SDS011;69145;45.544;10.214;2023-07-13T07:05:46;19.03;;;3.33;;
79677;SDS011;69145;45.544;10.214;2023-07-13T07:08:11;18.10;;;2.73;;
79677;SDS011;69145;45.544;10.214;2023-07-13T07:10:36;21.02;;;3.08;;
79677;SDS011;69145;45.544;10.214;2023-07-13T07:13:02;18.25;;;2.90;;
79677;SDS011;69145;45.544;10.214;2023-07-13T07:15:29;22.20;;;3.25;;
79677;SDS011;69145;45.544;10.214;2023-07-13T07:17:54;19.30;;;4.00;;
79677;SDS011;69145;45.544;10.214;2023-07-13T07:20:20;33.38;;;4.05;;
79677;SDS011;69145;45.544;10.214;2023-07-13T07:22:46;15.55;;;3.00;;
79677;SDS011;69145;45.544;10.214;2023-07-13T07:25:11;9.23;;;2.20;;
79677;SDS011;69145;45.544;10.214;2023-07-13T07:27:37;8.95;;;2.55;;
79677;SDS011;69145;45.544;10.214;2023-07-13T07:30:03;15.88;;;8.07;;
79677;SDS011;69145;45.544;10.214;2023-07-13T07:32:29;8.35;;;4.95;;
79677;SDS011;69145;45.544;10.214;2023-07-13T07:34:55;7.15;;;3.50;;
79677;SDS011;69145;45.544;10.214;2023-07-13T07:37:22;8.85;;;3.45;;
79677;SDS011;69145;45.544;10.214;2023-07-13T07:39:47;23.55;;;3.65;;
79677;SDS011;69145;45.544;10.214;2023-07-13T07:42:13;13.57;;;2.95;;
79677;SDS011;69145;45.544;10.214;2023-07-13T07:44:39;9.10;;;2.33;;
79677;SDS011;69145;45.544;10.214;2023-07-13T07:47:05;8.93;;;2.63;;
79677;SDS011;69145;45.544;10.214;2023-07-13T07:49:30;7.68;;;2.45;;
79677;SDS011;69145;45.544;10.214;2023-07-13T07:51:56;4.83;;;2.20;;
79677;SDS011;69145;45.544;10.214;2023-07-13T07:54:21;7.17;;;2.27;;
79677;SDS011;69145;45.544;10.214;2023-07-13T07:56:47;6.68;;;2.17;;
79677;SDS011;69145;45.544;10.214;2023-07-13T07:59:12;26.80;;;3.97;;
79677;SDS011;69145;45.544;10.214;2023-07-13T08:01:37;28.03;;;3.70;;
79677;SDS011;69145;45.544;10.214;2023-07-13T08:04:03;14.73;;;3.87;;
79677;SDS011;69145;45.544;10.214;2023-07-13T08:06:28;12.95;;;2.85;;
79677;SDS011;69145;45.544;10.214;2023-07-13T08:08:53;13.10;;;2.63;;
79677;SDS011;69145;45.544;10.214;2023-07-13T08:11:20;8.60;;;2.17;;
79677;SDS011;69145;45.544;10.214;2023-07-13T08:13:47;10.05;;;2.25;;
79677;SDS011;69145;45.544;10.214;2023-07-13T08:16:12;6.25;;;2.20;;
79677;SDS011;69145;45.544;10.214;2023-07-13T08:18:38;21.02;;;3.25;;
79677;SDS011;69145;45.544;10.214;2023-07-13T08:21:04;11.98;;;3.17;;
79677;SDS011;69145;45.544;10.214;2023-07-13T08:23:30;8.85;;;2.13;;
79677;SDS011;69145;45.544;10.214;2023-07-13T08:25:56;7.40;;;2.03;;
79677;SDS011;69145;45.544;10.214;2023-07-13T08:28:22;8.52;;;2.28;;
79677;SDS011;69145;45.544;10.214;2023-07-13T08:30:47;7.72;;;2.33;;
79677;SDS011;69145;45.544;10.214;2023-07-13T08:33:16;7.38;;;2.38;;
79677;SDS011;69145;45.544;10.214;2023-07-13T08:35:45;5.55;;;1.92;;
79677;SDS011;69145;45.544;10.214;2023-07-13T08:38:11;7.05;;;1.90;;
79677;SDS011;69145;45.544;10.214;2023-07-13T08:40:36;6.57;;;2.40;;
79677;SDS011;69145;45.544;10.214;2023-07-13T08:43:02;5.10;;;1.85;;
79677;SDS011;69145;45.544;10.214;2023-07-13T08:45:43;6.37;;;2.20;;
79677;SDS011;69145;45.544;10.214;2023-07-13T08:48:27;5.55;;;2.05;;
79677;SDS011;69145;45.544;10.214;2023-07-13T08:50:59;5.15;;;2.20;;
79677;SDS011;69145;45.544;10.214;2023-07-13T08:53:31;4.18;;;1.90;;
79677;SDS011;69145;45.544;10.214;2023-07-13T08:56:10;4.45;;;1.75;;
79677;SDS011;69145;45.544;10.214;2023-07-13T08:58:48;4.70;;;1.85;;
79677;SDS011;69145;45.544;10.214;2023-07-13T09:06:40;4.85;;;2.10;;
79677;SDS011;69145;45.544;10.214;2023-07-13T09:12:17;4.78;;;2.03;;
79677;SDS011;69145;45.544;10.214;2023-07-13T09:14:48;4.38;;;2.03;;
79677;SDS011;69145;45.544;10.214;2023-07-13T09:19:45;3.83;;;1.77;;
79677;SDS011;69145;45.544;10.214;2023-07-13T09:22:15;6.15;;;2.17;;
79677;SDS011;69145;45.544;10.214;2023-07-13T09:27:44;5.95;;;2.25;;
79677;SDS011;69145;45.544;10.214;2023-07-13T09:30:20;4.88;;;2.00;;
79677;SDS011;69145;45.544;10.214;2023-07-13T09:32:52;3.92;;;2.60;;
79677;SDS011;69145;45.544;10.214;2023-07-13T09:35:19;4.65;;;2.25;;
79677;SDS011;69145;45.544;10.214;2023-07-13T09:37:47;6.55;;;2.40;;
79677;SDS011;69145;45.544;10.214;2023-07-13T09:40:17;4.72;;;2.35;;
79677;SDS011;69145;45.544;10.214;2023-07-13T09:42:53;4.03;;;2.50;;
79677;SDS011;69145;45.544;10.214;2023-07-13T09:45:29;6.00;;;2.22;;
79677;SDS011;69145;45.544;10.214;2023-07-13T09:50:58;4.55;;;2.47;;
79677;SDS011;69145;45.544;10.214;2023-07-13T09:53:35;5.93;;;2.53;;
79677;SDS011;69145;45.544;10.214;2023-07-13T09:56:01;5.72;;;2.80;;
79677;SDS011;69145;45.544;10.214;2023-07-13T09:58:29;7.97;;;3.05;;
79677;SDS011;69145;45.544;10.214;2023-07-13T10:01:00;5.95;;;2.42;;
79677;SDS011;69145;45.544;10.214;2023-07-13T10:03:31;5.00;;;2.80;;
79677;SDS011;69145;45.544;10.214;2023-07-13T10:06:16;5.78;;;2.80;;
79677;SDS011;69145;45.544;10.214;2023-07-13T10:08:47;5.07;;;2.33;;
79677;SDS011;69145;45.544;10.214;2023-07-13T10:16:23;5.30;;;2.78;;
79677;SDS011;69145;45.544;10.214;2023-07-13T10:18:51;6.07;;;2.33;;
79677;SDS011;69145;45.544;10.214;2023-07-13T10:21:21;7.82;;;2.80;;
79677;SDS011;69145;45.544;10.214;2023-07-13T10:23:51;8.30;;;2.95;;
79677;SDS011;69145;45.544;10.214;2023-07-13T10:26:29;4.70;;;2.42;;
79677;SDS011;69145;45.544;10.214;2023-07-13T10:28:57;7.22;;;2.92;;
79677;SDS011;69145;45.544;10.214;2023-07-13T10:31:26;5.20;;;2.35;;
79677;SDS011;69145;45.544;10.214;2023-07-13T10:33:51;5.57;;;3.05;;
79677;SDS011;69145;45.544;10.214;2023-07-13T10:36:27;6.13;;;2.95;;
79677;SDS011;69145;45.544;10.214;2023-07-13T10:38:59;7.60;;;3.05;;
79677;SDS011;69145;45.544;10.214;2023-07-13T10:41:29;5.72;;;2.95;;
79677;SDS011;69145;45.544;10.214;2023-07-13T10:43:58;7.95;;;3.13;;
79677;SDS011;69145;45.544;10.214;2023-07-13T10:46:26;5.43;;;3.00;;
79677;SDS011;69145;45.544;10.214;2023-07-13T10:49:04;6.57;;;2.67;;
79677;SDS011;69145;45.544;10.214;2023-07-13T10:51:33;6.38;;;3.15;;
79677;SDS011;69145;45.544;10.214;2023-07-13T10:54:14;7.10;;;3.20;;
79677;SDS011;69145;45.544;10.214;2023-07-13T10:56:50;7.90;;;3.63;;
79677;SDS011;69145;45.544;10.214;2023-07-13T10:59:19;7.53;;;2.95;;
79677;SDS011;69145;45.544;10.214;2023-07-13T11:01:55;7.95;;;3.17;;
79677;SDS011;69145;45.544;10.214;2023-07-13T11:04:47;10.45;;;3.35;;
79677;SDS011;69145;45.544;10.214;2023-07-13T11:07:27;5.82;;;2.90;;
79677;SDS011;69145;45.544;10.214;2023-07-13T11:09:56;7.43;;;3.00;;
79677;SDS011;69145;45.544;10.214;2023-07-13T11:35:43;6.68;;;3.58;;
79677;SDS011;69145;45.544;10.214;2023-07-13T11:38:14;6.65;;;3.47;;
79677;SDS011;69145;45.544;10.214;2023-07-13T11:40:43;5.85;;;3.53;;
79677;SDS011;69145;45.544;10.214;2023-07-13T11:43:12;5.82;;;3.30;;
79677;SDS011;69145;45.544;10.214;2023-07-13T11:45:39;7.97;;;3.53;;
79677;SDS011;69145;45.544;10.214;2023-07-13T11:48:05;8.63;;;3.57;;
79677;SDS011;69145;45.544;10.214;2023-07-13T11:50:42;8.07;;;3.63;;
79677;SDS011;69145;45.544;10.214;2023-07-13T11:53:16;6.32;;;2.90;;
79677;SDS011;69145;45.544;10.214;2023-07-13T11:55:42;5.43;;;3.05;;
79677;SDS011;69145;45.544;10.214;2023-07-13T11:58:07;6.80;;;3.25;;
79677;SDS011;69145;45.544;10.214;2023-07-13T12:00:36;7.43;;;3.30;;
79677;SDS011;69145;45.544;10.214;2023-07-13T12:03:03;7.70;;;3.30;;
79677;SDS011;69145;45.544;10.214;2023-07-13T12:05:30;6.90;;;3.78;;
79677;SDS011;69145;45.544;10.214;2023-07-13T12:07:57;6.63;;;3.67;;
79677;SDS011;69145;45.544;10.214;2023-07-13T12:10:23;8.75;;;3.38;;
79677;SDS011;69145;45.544;10.214;2023-07-13T12:13:05;4.93;;;3.10;;
79677;SDS011;69145;45.544;10.214;2023-07-13T12:15:37;7.28;;;3.25;;
79677;SDS011;69145;45.544;10.214;2023-07-13T12:18:13;10.15;;;4.13;;
79677;SDS011;69145;45.544;10.214;2023-07-13T12:20:40;5.30;;;3.20;;
79677;SDS011;69145;45.544;10.214;2023-07-13T12:23:07;7.50;;;4.05;;
79677;SDS011;69145;45.544;10.214;2023-07-13T12:25:53;7.22;;;3.20;;
79677;SDS011;69145;45.544;10.214;2023-07-13T12:28:19;7.38;;;3.33;;
79677;SDS011;69145;45.544;10.214;2023-07-13T12:30:57;6.55;;;2.67;;
79677;SDS011;69145;45.544;10.214;2023-07-13T12:33:24;6.97;;;3.15;;
79677;SDS011;69145;45.544;10.214;2023-07-13T12:35:53;8.35;;;3.42;;
79677;SDS011;69145;45.544;10.214;2023-07-13T12:38:20;8.10;;;3.15;;
79677;SDS011;69145;45.544;10.214;2023-07-13T12:40:48;8.05;;;3.40;;
79677;SDS011;69145;45.544;10.214;2023-07-13T12:43:16;7.35;;;3.60;;
79677;SDS011;69145;45.544;10.214;2023-07-13T12:45:55;6.75;;;3.75;;
79677;SDS011;69145;45.544;10.214;2023-07-13T12:48:26;6.18;;;3.13;;
79677;SDS011;69145;45.544;10.214;2023-07-13T12:50:53;6.18;;;3.40;;
79677;SDS011;69145;45.544;10.214;2023-07-13T12:53:23;5.38;;;3.05;;
79677;SDS011;69145;45.544;10.214;2023-07-13T12:55:54;6.25;;;3.25;;
79677;SDS011;69145;45.544;10.214;2023-07-13T12:58:26;4.70;;;3.28;;
79677;SDS011;69145;45.544;10.214;2023-07-13T13:00:54;6.63;;;3.25;;
79677;SDS011;69145;45.544;10.214;2023-07-13T13:03:23;5.97;;;3.40;;
79677;SDS011;69145;45.544;10.214;2023-07-13T13:05:57;5.63;;;2.83;;
79677;SDS011;69145;45.544;10.214;2023-07-13T13:08:47;4.70;;;3.03;;
79677;SDS011;69145;45.544;10.214;2023-07-13T13:11:15;5.07;;;3.35;;
79677;SDS011;69145;45.544;10.214;2023-07-13T13:13:41;5.22;;;2.95;;
79677;SDS011;69145;45.544;10.214;2023-07-13T13:16:12;7.05;;;3.40;;
79677;SDS011;69145;45.544;10.214;2023-07-13T13:18:48;5.85;;;2.97;;
79677;SDS011;69145;45.544;10.214;2023-07-13T13:21:15;6.03;;;3.20;;
79677;SDS011;69145;45.544;10.214;2023-07-13T13:23:41;6.05;;;3.28;;
79677;SDS011;69145;45.544;10.214;2023-07-13T13:26:13;6.40;;;3.13;;
79677;SDS011;69145;45.544;10.214;2023-07-13T13:28:43;5.78;;;3.03;;
79677;SDS011;69145;45.544;10.214;2023-07-13T13:31:09;4.40;;;2.40;;
79677;SDS011;69145;45.544;10.214;2023-07-13T13:33:42;4.68;;;3.20;;
79677;SDS011;69145;45.544;10.214;2023-07-13T13:36:17;6.88;;;3.28;;
79677;SDS011;69145;45.544;10.214;2023-07-13T13:38:45;5.50;;;3.58;;
79677;SDS011;69145;45.544;10.214;2023-07-13T13:41:11;8.63;;;3.33;;
79677;SDS011;69145;45.544;10.214;2023-07-13T13:43:41;4.85;;;3.22;;
79677;SDS011;69145;45.544;10.214;2023-07-13T13:48:38;7.40;;;3.40;;
79677;SDS011;69145;45.544;10.214;2023-07-13T13:51:11;7.00;;;4.00;;
79677;SDS011;69145;45.544;10.214;2023-07-13T13:53:39;5.40;;;3.33;;
79677;SDS011;69145;45.544;10.214;2023-07-13T13:56:05;9.80;;;4.40;;
79677;SDS011;69145;45.544;10.214;2023-07-13T13:58:31;6.95;;;3.78;;
79677;SDS011;69145;45.544;10.214;2023-07-13T14:00:56;6.38;;;3.67;;
79677;SDS011;69145;45.544;10.214;2023-07-13T14:03:23;8.15;;;3.50;;
79677;SDS011;69145;45.544;10.214;2023-07-13T14:05:49;6.90;;;3.80;;
79677;SDS011;69145;45.544;10.214;2023-07-13T14:08:16;8.02;;;4.18;;
79677;SDS011;69145;45.544;10.214;2023-07-13T14:10:43;8.00;;;5.03;;
79677;SDS011;69145;45.544;10.214;2023-07-13T14:13:21;8.13;;;4.85;;
79677;SDS011;69145;45.544;10.214;2023-07-13T14:15:51;8.00;;;4.20;;
79677;SDS011;69145;45.544;10.214;2023-07-13T14:18:17;8.90;;;5.18;;
79677;SDS011;69145;45.544;10.214;2023-07-13T14:20:43;7.65;;;4.82;;
79677;SDS011;69145;45.544;10.214;2023-07-13T14:23:12;7.43;;;4.47;;
79677;SDS011;69145;45.544;10.214;2023-07-13T14:25:38;7.75;;;3.83;;
79677;SDS011;69145;45.544;10.214;2023-07-13T14:28:11;8.48;;;4.22;;
79677;SDS011;69145;45.544;10.214;2023-07-13T14:30:44;8.02;;;4.65;;
79677;SDS011;69145;45.544;10.214;2023-07-13T14:33:10;8.75;;;4.05;;
79677;SDS011;69145;45.544;10.214;2023-07-13T14:35:36;7.97;;;4.57;;
79677;SDS011;69145;45.544;10.214;2023-07-13T14:38:03;7.35;;;4.05;;
79677;SDS011;69145;45.544;10.214;2023-07-13T14:40:30;8.38;;;4.18;;
79677;SDS011;69145;45.544;10.214;2023-07-13T14:42:57;8.93;;;4.65;;
79677;SDS011;69145;45.544;10.214;2023-07-13T14:45:23;7.03;;;4.28;;
79677;SDS011;69145;45.544;10.214;2023-07-13T14:47:49;7.85;;;4.40;;
79677;SDS011;69145;45.544;10.214;2023-07-13T14:50:16;8.55;;;4.55;;
79677;SDS011;69145;45.544;10.214;2023-07-13T14:52:44;7.03;;;4.30;;
79677;SDS011;69145;45.544;10.214;2023-07-13T14:55:12;7.43;;;4.70;;
79677;SDS011;69145;45.544;10.214;2023-07-13T14:57:41;10.23;;;4.60;;
79677;SDS011;69145;45.544;10.214;2023-07-13T15:00:14;9.45;;;4.82;;
79677;SDS011;69145;45.544;10.214;2023-07-13T15:02:44;9.02;;;3.97;;
79677;SDS011;69145;45.544;10.214;2023-07-13T15:05:17;8.75;;;4.25;;
79677;SDS011;69145;45.544;10.214;2023-07-13T15:07:45;8.93;;;5.10;;
79677;SDS011;69145;45.544;10.214;2023-07-13T15:12:42;9.45;;;4.40;;
79677;SDS011;69145;45.544;10.214;2023-07-13T15:15:08;7.05;;;4.68;;
79677;SDS011;69145;45.544;10.214;2023-07-13T15:17:35;9.57;;;4.93;;
79677;SDS011;69145;45.544;10.214;2023-07-13T15:20:10;11.05;;;4.60;;
79677;SDS011;69145;45.544;10.214;2023-07-13T15:22:44;9.20;;;5.10;;
79677;SDS011;69145;45.544;10.214;2023-07-13T15:25:18;9.02;;;4.68;;
79677;SDS011;69145;45.544;10.214;2023-07-13T15:27:49;9.73;;;4.85;;
79677;SDS011;69145;45.544;10.214;2023-07-13T15:30:15;8.13;;;4.45;;
79677;SDS011;69145;45.544;10.214;2023-07-13T15:32:42;10.52;;;4.63;;